Lady Goodgirl — 9H8679 — position and weather

sailwx.info

Track history (hours):
 
Tides and Currents Weather Stations Pressure Air Temp Water Temp Dewpoint Dewpoint Depression Visibility Wind Speed Wind Dir Waves Ship Positions

Lady Goodgirl

Last reported at 2015-Aug-27 12:33 UTC. Time now 2015-Sep-04 21:10 UTC.
Position N 37°52' E 023°21'.
Warning: this ship's position is 8 days out of date.

Length 38 m; draft 2.8 m.

Type: Pleasure craft. MMSI: 256670000.

Date/timePositionNaut miles runAvg speedWind from/ knotsBaromVisibWave heightAir tempDewpointWater temp
2015-Aug-27 12:33N 37°52' E 023°21'1111.1
2015-Aug-27 11:33N 37°54' E 023°35'4 4.0
2015-Aug-27 10:33N 37°56' E 023°39'0 0.0
2015-Aug-27 09:33N 37°56' E 023°39'7 7.1
2015-Aug-27 08:33N 37°50' E 023°44'3 2.9
2015-Aug-27 07:32N 37°48' E 023°47'0 0.0
2015-Aug-27 06:32N 37°48' E 023°47'0 0.0
2015-Aug-27 05:29N 37°48' E 023°47'0 0.0
2015-Aug-27 04:32N 37°48' E 023°47'0 0.0
2015-Aug-27 03:32N 37°48' E 023°47'0 0.0
2015-Aug-27 02:32N 37°48' E 023°47'0 0.0
2015-Aug-27 01:32N 37°48' E 023°47'0 0.0
2015-Aug-27 00:32N 37°48' E 023°47'0 0.0
2015-Aug-26 23:32N 37°48' E 023°47'0 0.0
2015-Aug-26 22:29N 37°48' E 023°47'0 0.0
2015-Aug-26 21:20N 37°48' E 023°47'0 0.0
2015-Aug-26 20:32N 37°48' E 023°47'0 0.0
2015-Aug-26 19:32N 37°48' E 023°47'0 0.0
2015-Aug-26 18:32N 37°48' E 023°47'0 0.0
2015-Aug-26 17:32N 37°48' E 023°47'0 0.0
2015-Aug-26 16:32N 37°48' E 023°47'0 0.0
2015-Aug-26 15:32N 37°48' E 023°47'0 0.1
2015-Aug-26 14:33N 37°48' E 023°47'1110.7
2015-Aug-26 13:33N 37°41' E 023°36'1211.6
2015-Aug-26 12:33N 37°33' E 023°26'1 0.0
2015-Aug-25 14:33N 37°33' E 023°27'9 8.2
2015-Aug-25 13:29N 37°25' E 023°32'9 0.2
2015-Aug-23 15:33N 37°20' E 023°23'5 0.3
2015-Aug-22 20:07N 37°21' E 023°29'0 0.0
2015-Aug-22 19:25N 37°21' E 023°29'0 0.0
2015-Aug-22 18:19N 37°21' E 023°29'0 0.0
2015-Aug-21 23:13N 37°21' E 023°29'0 0.0
2015-Aug-21 21:25N 37°21' E 023°29'0 0.0
2015-Aug-21 20:16N 37°21' E 023°29'0 0.0
2015-Aug-21 19:28N 37°21' E 023°29'0 0.0
2015-Aug-21 18:31N 37°21' E 023°29'0 0.0
2015-Aug-21 17:22N 37°21' E 023°29'0 0.1
2015-Aug-21 14:15N 37°21' E 023°29'5 5.9
2015-Aug-21 13:21N 37°26' E 023°33'911.0
2015-Aug-21 12:34N 37°34' E 023°37'1110.9
2015-Aug-21 11:33N 37°44' E 023°43'6 5.6
2015-Aug-21 10:33N 37°48' E 023°47'0 0.0
2015-Aug-21 09:33N 37°48' E 023°47'0 0.0
2015-Aug-21 08:33N 37°48' E 023°47'0 0.0
2015-Aug-21 07:33N 37°48' E 023°47'0 0.0
2015-Aug-21 06:33N 37°48' E 023°47'0 0.0
2015-Aug-21 05:27N 37°48' E 023°47'0 0.0
2015-Aug-21 04:33N 37°48' E 023°47'0 0.0
2015-Aug-21 03:33N 37°48' E 023°47'0 0.0
2015-Aug-21 02:33N 37°48' E 023°47'0 0.0
2015-Aug-21 01:27N 37°48' E 023°47'0 0.0
2015-Aug-21 00:30N 37°48' E 023°47'0 0.0
2015-Aug-20 23:33N 37°48' E 023°47'0 0.0
2015-Aug-20 22:33N 37°48' E 023°47'0 0.0
2015-Aug-20 21:33N 37°48' E 023°47'0 0.0
2015-Aug-20 20:33N 37°48' E 023°47'0 0.0
2015-Aug-20 19:33N 37°48' E 023°47'0 0.0
2015-Aug-20 18:33N 37°48' E 023°47'5 4.8
2015-Aug-20 17:33N 37°45' E 023°51'48 3.7
2015-Aug-20 04:21N 37°22' E 024°44'910.9
2015-Aug-20 03:33N 37°21' E 024°55'1010.2
2015-Aug-20 02:33N 37°21' E 025°08'10 9.7
2015-Aug-20 01:33N 37°24' E 025°20'1 0.8
2015-Aug-20 00:31N 37°24' E 025°20'0 0.0
2015-Aug-19 23:31N 37°24' E 025°20'0 0.0
2015-Aug-19 22:31N 37°24' E 025°20'0 0.0
2015-Aug-19 21:31N 37°24' E 025°20'0 0.0
2015-Aug-19 20:34N 37°24' E 025°20'0 0.0
2015-Aug-19 19:33N 37°24' E 025°20'0 0.0
2015-Aug-19 18:30N 37°24' E 025°20'0 0.0
2015-Aug-19 17:33N 37°24' E 025°20'0 0.0
2015-Aug-19 16:34N 37°24' E 025°20'0 0.0
2015-Aug-19 15:30N 37°24' E 025°20'0 0.0
2015-Aug-19 14:33N 37°24' E 025°20'0 0.0
2015-Aug-19 13:34N 37°24' E 025°20'0 0.0
2015-Aug-19 12:33N 37°24' E 025°20'0 0.0
2015-Aug-19 11:33N 37°24' E 025°20'0 0.0
2015-Aug-19 10:33N 37°24' E 025°20'0 0.0
2015-Aug-19 09:33N 37°24' E 025°20'0 0.0
2015-Aug-19 08:33N 37°24' E 025°20'0 0.0
2015-Aug-19 07:33N 37°24' E 025°20'0 0.0
2015-Aug-19 06:33N 37°24' E 025°20'0 0.0
2015-Aug-19 05:33N 37°24' E 025°20'0 0.0
2015-Aug-19 04:33N 37°24' E 025°20'0 0.0
2015-Aug-19 03:33N 37°24' E 025°20'0 0.0
2015-Aug-19 02:33N 37°24' E 025°20'0 0.0
2015-Aug-19 01:30N 37°24' E 025°20'0 0.0
2015-Aug-19 00:33N 37°24' E 025°20'0 0.0
2015-Aug-18 23:33N 37°24' E 025°20'0 0.0
2015-Aug-18 22:33N 37°24' E 025°20'0 0.0
2015-Aug-18 21:33N 37°24' E 025°20'0 0.0
2015-Aug-18 20:33N 37°24' E 025°20'0 0.0
2015-Aug-18 19:33N 37°24' E 025°20'0 0.0
2015-Aug-18 18:33N 37°24' E 025°20'0 0.0
2015-Aug-18 17:33N 37°24' E 025°20'0 0.0
2015-Aug-18 16:33N 37°24' E 025°20'0 0.0
2015-Aug-18 15:33N 37°24' E 025°20'0 0.0
2015-Aug-18 14:33N 37°24' E 025°20'0 0.0
2015-Aug-18 13:33N 37°24' E 025°20'0 0.0
2015-Aug-18 12:33N 37°24' E 025°20'3 2.6
2015-Aug-18 11:33N 37°27' E 025°19'0 0.4
2015-Aug-18 10:30N 37°26' E 025°19'0 0.0
2015-Aug-18 09:33N 37°26' E 025°19'0 0.0
2015-Aug-18 08:33N 37°26' E 025°19'0 0.0
2015-Aug-18 07:33N 37°26' E 025°19'0 0.0
2015-Aug-18 06:30N 37°26' E 025°19'0 0.0
2015-Aug-18 05:33N 37°26' E 025°19'0 0.0
2015-Aug-18 04:33N 37°26' E 025°19'0 0.0
2015-Aug-18 04:09N 37°26' E 025°19'0 0.0
2015-Aug-18 04:06N 37°26' E 025°19'0 0.0
2015-Aug-18 03:33N 37°26' E 025°19'0 0.0
2015-Aug-18 02:30N 37°26' E 025°19'0 0.0
2015-Aug-18 01:33N 37°26' E 025°19'0 0.0
2015-Aug-18 00:33N 37°26' E 025°19'0 0.0
2015-Aug-17 23:33N 37°26' E 025°19'0 0.0
2015-Aug-17 22:34N 37°26' E 025°19'4 4.3
2015-Aug-17 21:33N 37°24' E 025°24'1211.5
2015-Aug-17 20:34N 37°24' E 025°38'1211.5
2015-Aug-17 19:34N 37°23' E 025°53'1211.6
2015-Aug-17 18:33N 37°23' E 026°07'  
Track history (hours):
 
Tides and Currents Weather Stations Pressure Air Temp Water Temp Dewpoint Dewpoint Depression Visibility Wind Speed Wind Dir Waves Ship Positions

Lady Goodgirl

Last reported at 2015-Aug-27 12:33 UTC. Time now 2015-Sep-04 21:10 UTC.
Position N 37°52' E 023°21'.
Warning: this ship's position is 8 days out of date.

Length 38 m; draft 2.8 m.

Type: Pleasure craft. MMSI: 256670000.

Date/timePositionNaut miles runAvg speedWind from/ knotsBaromVisibWave heightAir tempDewpointWater temp
2015-Aug-27 12:33N 37°52' E 023°21'1111.1
2015-Aug-27 11:33N 37°54' E 023°35'4 4.0
2015-Aug-27 10:33N 37°56' E 023°39'0 0.0
2015-Aug-27 09:33N 37°56' E 023°39'7 7.1
2015-Aug-27 08:33N 37°50' E 023°44'3 2.9
2015-Aug-27 07:32N 37°48' E 023°47'0 0.0
2015-Aug-27 06:32N 37°48' E 023°47'0 0.0
2015-Aug-27 05:29N 37°48' E 023°47'0 0.0
2015-Aug-27 04:32N 37°48' E 023°47'0 0.0
2015-Aug-27 03:32N 37°48' E 023°47'0 0.0
2015-Aug-27 02:32N 37°48' E 023°47'0 0.0
2015-Aug-27 01:32N 37°48' E 023°47'0 0.0
2015-Aug-27 00:32N 37°48' E 023°47'0 0.0
2015-Aug-26 23:32N 37°48' E 023°47'0 0.0
2015-Aug-26 22:29N 37°48' E 023°47'0 0.0
2015-Aug-26 21:20N 37°48' E 023°47'0 0.0
2015-Aug-26 20:32N 37°48' E 023°47'0 0.0
2015-Aug-26 19:32N 37°48' E 023°47'0 0.0
2015-Aug-26 18:32N 37°48' E 023°47'0 0.0
2015-Aug-26 17:32N 37°48' E 023°47'0 0.0
2015-Aug-26 16:32N 37°48' E 023°47'0 0.0
2015-Aug-26 15:32N 37°48' E 023°47'0 0.1
2015-Aug-26 14:33N 37°48' E 023°47'1110.7
2015-Aug-26 13:33N 37°41' E 023°36'1211.6
2015-Aug-26 12:33N 37°33' E 023°26'1 0.0
2015-Aug-25 14:33N 37°33' E 023°27'9 8.2
2015-Aug-25 13:29N 37°25' E 023°32'9 0.2
2015-Aug-23 15:33N 37°20' E 023°23'5 0.3
2015-Aug-22 20:07N 37°21' E 023°29'0 0.0
2015-Aug-22 19:25N 37°21' E 023°29'0 0.0
2015-Aug-22 18:19N 37°21' E 023°29'0 0.0
2015-Aug-21 23:13N 37°21' E 023°29'0 0.0
2015-Aug-21 21:25N 37°21' E 023°29'0 0.0
2015-Aug-21 20:16N 37°21' E 023°29'0 0.0
2015-Aug-21 19:28N 37°21' E 023°29'0 0.0
2015-Aug-21 18:31N 37°21' E 023°29'0 0.0
2015-Aug-21 17:22N 37°21' E 023°29'0 0.1
2015-Aug-21 14:15N 37°21' E 023°29'5 5.9
2015-Aug-21 13:21N 37°26' E 023°33'911.0
2015-Aug-21 12:34N 37°34' E 023°37'1110.9
2015-Aug-21 11:33N 37°44' E 023°43'6 5.6
2015-Aug-21 10:33N 37°48' E 023°47'0 0.0
2015-Aug-21 09:33N 37°48' E 023°47'0 0.0
2015-Aug-21 08:33N 37°48' E 023°47'0 0.0
2015-Aug-21 07:33N 37°48' E 023°47'0 0.0
2015-Aug-21 06:33N 37°48' E 023°47'0 0.0
2015-Aug-21 05:27N 37°48' E 023°47'0 0.0
2015-Aug-21 04:33N 37°48' E 023°47'0 0.0
2015-Aug-21 03:33N 37°48' E 023°47'0 0.0
2015-Aug-21 02:33N 37°48' E 023°47'0 0.0
2015-Aug-21 01:27N 37°48' E 023°47'0 0.0
2015-Aug-21 00:30N 37°48' E 023°47'0 0.0
2015-Aug-20 23:33N 37°48' E 023°47'0 0.0
2015-Aug-20 22:33N 37°48' E 023°47'0 0.0
2015-Aug-20 21:33N 37°48' E 023°47'0 0.0
2015-Aug-20 20:33N 37°48' E 023°47'0 0.0
2015-Aug-20 19:33N 37°48' E 023°47'0 0.0
2015-Aug-20 18:33N 37°48' E 023°47'5 4.8
2015-Aug-20 17:33N 37°45' E 023°51'48 3.7
2015-Aug-20 04:21N 37°22' E 024°44'910.9
2015-Aug-20 03:33N 37°21' E 024°55'1010.2
2015-Aug-20 02:33N 37°21' E 025°08'10 9.7
2015-Aug-20 01:33N 37°24' E 025°20'1 0.8
2015-Aug-20 00:31N 37°24' E 025°20'0 0.0
2015-Aug-19 23:31N 37°24' E 025°20'0 0.0
2015-Aug-19 22:31N 37°24' E 025°20'0 0.0
2015-Aug-19 21:31N 37°24' E 025°20'0 0.0
2015-Aug-19 20:34N 37°24' E 025°20'0 0.0
2015-Aug-19 19:33N 37°24' E 025°20'0 0.0
2015-Aug-19 18:30N 37°24' E 025°20'0 0.0
2015-Aug-19 17:33N 37°24' E 025°20'0 0.0
2015-Aug-19 16:34N 37°24' E 025°20'0 0.0
2015-Aug-19 15:30N 37°24' E 025°20'0 0.0
2015-Aug-19 14:33N 37°24' E 025°20'0 0.0
2015-Aug-19 13:34N 37°24' E 025°20'0 0.0
2015-Aug-19 12:33N 37°24' E 025°20'0 0.0
2015-Aug-19 11:33N 37°24' E 025°20'0 0.0
2015-Aug-19 10:33N 37°24' E 025°20'0 0.0
2015-Aug-19 09:33N 37°24' E 025°20'0 0.0
2015-Aug-19 08:33N 37°24' E 025°20'0 0.0
2015-Aug-19 07:33N 37°24' E 025°20'0 0.0
2015-Aug-19 06:33N 37°24' E 025°20'0 0.0
2015-Aug-19 05:33N 37°24' E 025°20'0 0.0
2015-Aug-19 04:33N 37°24' E 025°20'0 0.0
2015-Aug-19 03:33N 37°24' E 025°20'0 0.0
2015-Aug-19 02:33N 37°24' E 025°20'0 0.0
2015-Aug-19 01:30N 37°24' E 025°20'0 0.0
2015-Aug-19 00:33N 37°24' E 025°20'0 0.0
2015-Aug-18 23:33N 37°24' E 025°20'0 0.0
2015-Aug-18 22:33N 37°24' E 025°20'0 0.0
2015-Aug-18 21:33N 37°24' E 025°20'0 0.0
2015-Aug-18 20:33N 37°24' E 025°20'0 0.0
2015-Aug-18 19:33N 37°24' E 025°20'0 0.0
2015-Aug-18 18:33N 37°24' E 025°20'0 0.0
2015-Aug-18 17:33N 37°24' E 025°20'0 0.0
2015-Aug-18 16:33N 37°24' E 025°20'0 0.0
2015-Aug-18 15:33N 37°24' E 025°20'0 0.0
2015-Aug-18 14:33N 37°24' E 025°20'0 0.0
2015-Aug-18 13:33N 37°24' E 025°20'0 0.0
2015-Aug-18 12:33N 37°24' E 025°20'3 2.6
2015-Aug-18 11:33N 37°27' E 025°19'0 0.4
2015-Aug-18 10:30N 37°26' E 025°19'0 0.0
2015-Aug-18 09:33N 37°26' E 025°19'0 0.0
2015-Aug-18 08:33N 37°26' E 025°19'0 0.0
2015-Aug-18 07:33N 37°26' E 025°19'0 0.0
2015-Aug-18 06:30N 37°26' E 025°19'0 0.0
2015-Aug-18 05:33N 37°26' E 025°19'0 0.0
2015-Aug-18 04:33N 37°26' E 025°19'0 0.0
2015-Aug-18 04:09N 37°26' E 025°19'0 0.0
2015-Aug-18 04:06N 37°26' E 025°19'0 0.0
2015-Aug-18 03:33N 37°26' E 025°19'0 0.0
2015-Aug-18 02:30N 37°26' E 025°19'0 0.0
2015-Aug-18 01:33N 37°26' E 025°19'0 0.0
2015-Aug-18 00:33N 37°26' E 025°19'0 0.0
2015-Aug-17 23:33N 37°26' E 025°19'0 0.0
2015-Aug-17 22:34N 37°26' E 025°19'4 4.3
2015-Aug-17 21:33N 37°24' E 025°24'1211.5
2015-Aug-17 20:34N 37°24' E 025°38'1211.5
2015-Aug-17 19:34N 37°23' E 025°53'1211.6
2015-Aug-17 18:33N 37°23' E 026°07'  

Dump ship's entire track history